This is the latest recevied weather packets stored in our database for station/object SQ5RTW-1. If no packets are shown the sender has not sent any weather packets the latest 10 day(s).
| Time | Temp. | Humidity | Pressure | Rain* | Wind** | Luminosity | Snow |
|---|---|---|---|---|---|---|---|
| 1777411571 | 3.89° C | 49% | 1028 hPa | - | - | - | - |
| 1777410670 | 5° C | 47% | 1027.8 hPa | - | - | - | - |
| 1777409769 | 5.56° C | 47% | 1027.7 hPa | - | - | - | - |
| 1777408827 | 5.56° C | 47% | 1027.7 hPa | - | - | - | - |
| 1777407926 | 6.11° C | 48% | 1027.5 hPa | - | - | - | - |
| 1777406124 | 7.22° C | 50% | 1027.2 hPa | - | - | - | - |
| 1777405181 | 7.78° C | 48% | 1027.1 hPa | - | - | - | - |
| 1777404280 | 7.78° C | 50% | 1027.2 hPa | - | - | - | - |
| 1777402478 | 8.33° C | 47% | 1027.1 hPa | - | - | - | - |
| 1777400676 | 10.56° C | 44% | 1026.9 hPa | - | - | - | - |
| 1777400635 | 8.89° C | 44% | 1026.9 hPa | - | - | - | - |
| 1777397014 | 12.22° C | 43% | 1026.4 hPa | - | - | - | - |
| 1777396088 | 10° C | 40% | 1026.2 hPa | - | - | - | - |
| 1777390600 | 12.78° C | 29% | 1026 hPa | - | - | - | - |
| 1777387898 | 14.44° C | 26% | 1026.2 hPa | - | - | - | - |
| 1777386997 | 18.33° C | 21% | 1026.4 hPa | - | - | - | - |
| 1777384294 | 12.22° C | 32% | 1026.6 hPa | - | - | - | - |
| 1777383393 | 14.44° C | 33% | 1026.7 hPa | - | - | - | - |
| 1777381055 | 15° C | 31% | 1026.9 hPa | - | - | - | - |
| 1777378311 | 13.89° C | 31% | 1026.9 hPa | - | - | - | - |
| 1777378295 | 14.44° C | 32% | 1027 hPa | - | - | - | - |
| 1777378270 | 12.22° C | 31% | 1027 hPa | - | - | - | - |
| 1777375567 | 13.89° C | 31% | 1027.2 hPa | - | - | - | - |
| 1777374666 | 13.33° C | 30% | 1027.3 hPa | - | - | - | - |
| 1777373749 | 15.56° C | 32% | 1027.3 hPa | - | - | - | - |
* Rain since midnight (hover to see other rain measurements)
** Current wind speed in m/s (hover to see current wind gust speed)